Time;durP1;ratioP1;P1;durP2;ratioP2;P2;SDS_P1;SDS_P2;PMS_P1;PMS_P2;Temp;Humidity;BMP_temperature;BMP_pressure;BME280_temperature;BME280_humidity;BME280_pressure;Samples;Min_cycle;Max_cycle;Signal;HPM_P1;HPM_P2
2021/10/12 00:01:34;;;;;;;4.82;3.65;;;;;;;;;;5085443;28;20024;-48
2021/10/12 00:04:00;;;;;;;4.20;3.25;;;;;;;;;;5085496;28;20431;-48
2021/10/12 00:06:26;;;;;;;4.22;3.45;;;;;;;;;;5078763;28;20074;-49
2021/10/12 00:08:52;;;;;;;5.68;4.18;;;;;;;;;;5065741;28;20107;-48
2021/10/12 00:11:18;;;;;;;4.97;4.15;;;;;;;;;;5065056;28;20041;-48
2021/10/12 00:13:45;;;;;;;4.97;3.83;;;;;;;;;;5064981;28;20025;-48
2021/10/12 00:16:12;;;;;;;4.70;3.75;;;;;;;;;;5068332;28;20047;-47
2021/10/12 00:18:38;;;;;;;5.72;3.72;;;;;;;;;;5073348;28;20017;-50
2021/10/12 00:21:05;;;;;;;6.03;4.63;;;;;;;;;;5080370;28;20149;-48
2021/10/12 00:23:31;;;;;;;6.43;4.60;;;;;;;;;;5067047;28;20059;-48
2021/10/12 00:25:57;;;;;;;5.70;4.50;;;;;;;;;;5066699;28;20060;-50
2021/10/12 00:28:24;;;;;;;6.55;4.80;;;;;;;;;;5067744;28;20411;-50
2021/10/12 00:30:51;;;;;;;5.45;4.00;;;;;;;;;;5071823;28;20036;-49
2021/10/12 00:33:17;;;;;;;6.07;4.80;;;;;;;;;;5086105;28;20020;-50
2021/10/12 00:35:43;;;;;;;6.40;5.25;;;;;;;;;;5086821;28;20576;-52
2021/10/12 00:38:09;;;;;;;6.82;4.97;;;;;;;;;;5086236;28;20024;-51
2021/10/12 00:40:38;;;;;;;7.65;4.75;;;;;;;;;;5086140;28;20032;-52
2021/10/12 00:43:05;;;;;;;6.55;4.53;;;;;;;;;;5086386;28;20047;-52
2021/10/12 00:45:31;;;;;;;6.07;4.32;;;;;;;;;;5085669;28;20106;-49
2021/10/12 00:47:59;;;;;;;6.55;4.35;;;;;;;;;;5086784;28;20075;-51
2021/10/12 00:50:26;;;;;;;5.85;4.32;;;;;;;;;;5086520;28;20507;-50
2021/10/12 00:52:52;;;;;;;5.38;4.03;;;;;;;;;;5087102;28;20022;-50
2021/10/12 00:55:18;;;;;;;5.28;4.22;;;;;;;;;;5086869;28;20103;-49
2021/10/12 00:57:45;;;;;;;5.22;4.18;;;;;;;;;;5086675;28;20031;-50
2021/10/12 01:00:11;;;;;;;6.25;4.22;;;;;;;;;;5085971;28;20032;-48
2021/10/12 01:02:37;;;;;;;6.63;4.07;;;;;;;;;;5086612;28;20028;-49
2021/10/12 01:05:04;;;;;;;5.38;4.40;;;;;;;;;;5086408;28;20107;-49
2021/10/12 01:07:30;;;;;;;7.82;5.40;;;;;;;;;;5085170;28;20028;-50
2021/10/12 01:09:57;;;;;;;6.72;4.55;;;;;;;;;;5086136;28;20048;-50
2021/10/12 01:12:23;;;;;;;8.07;5.00;;;;;;;;;;5084832;28;20024;-52
2021/10/12 01:14:49;;;;;;;5.60;4.28;;;;;;;;;;5086436;28;20822;-51
2021/10/12 01:17:15;;;;;;;6.95;4.50;;;;;;;;;;5083247;28;20024;-50
2021/10/12 01:19:41;;;;;;;5.80;4.25;;;;;;;;;;5085260;28;20062;-50
2021/10/12 01:22:07;;;;;;;5.78;4.35;;;;;;;;;;5067958;28;20085;-49
2021/10/12 01:24:34;;;;;;;6.70;5.15;;;;;;;;;;5066316;28;20098;-50
2021/10/12 01:27:00;;;;;;;6.05;4.55;;;;;;;;;;5066058;28;20040;-50
2021/10/12 01:29:26;;;;;;;6.78;5.07;;;;;;;;;;5067041;28;20415;-48
2021/10/12 01:31:52;;;;;;;6.35;4.38;;;;;;;;;;5066017;28;20029;-49
2021/10/12 01:34:20;;;;;;;7.15;4.47;;;;;;;;;;5066013;28;20056;-52
2021/10/12 01:36:47;;;;;;;7.18;5.47;;;;;;;;;;5065488;28;20418;-53
2021/10/12 01:39:13;;;;;;;7.65;5.88;;;;;;;;;;5066155;28;20025;-48
2021/10/12 01:41:39;;;;;;;9.05;6.05;;;;;;;;;;5076550;28;20032;-49
2021/10/12 01:44:06;;;;;;;9.43;5.90;;;;;;;;;;5086164;28;20036;-48
2021/10/12 01:46:32;;;;;;;8.90;6.22;;;;;;;;;;5076985;28;20518;-52
2021/10/12 01:48:58;;;;;;;8.20;5.75;;;;;;;;;;5065582;28;20028;-50
2021/10/12 01:51:24;;;;;;;9.93;6.88;;;;;;;;;;5065510;28;20108;-50
2021/10/12 01:53:50;;;;;;;11.80;7.25;;;;;;;;;;5077358;28;20160;-49
2021/10/12 01:56:16;;;;;;;9.38;6.50;;;;;;;;;;5086272;28;20012;-50
2021/10/12 01:58:50;;;;;;;9.57;6.40;;;;;;;;;;5086053;28;20024;-52
2021/10/12 02:01:20;;;;;;;9.90;6.70;;;;;;;;;;5077362;28;20025;-49
2021/10/12 02:03:46;;;;;;;11.20;7.15;;;;;;;;;;5065504;28;20050;-49
2021/10/12 02:06:12;;;;;;;10.60;6.90;;;;;;;;;;5065746;28;20120;-49
2021/10/12 02:08:38;;;;;;;11.93;8.50;;;;;;;;;;5082892;28;20058;-49
2021/10/12 02:11:04;;;;;;;11.40;7.13;;;;;;;;;;5085708;28;20024;-48
2021/10/12 02:13:30;;;;;;;13.13;8.55;;;;;;;;;;5086252;28;20028;-49
2021/10/12 02:15:56;;;;;;;12.82;8.00;;;;;;;;;;5084832;28;20115;-49
2021/10/12 02:18:22;;;;;;;10.40;6.88;;;;;;;;;;5087154;28;20050;-48
2021/10/12 02:20:49;;;;;;;11.43;7.25;;;;;;;;;;5088986;28;20020;-50
2021/10/12 02:23:15;;;;;;;10.45;7.32;;;;;;;;;;5089414;28;20111;-49
2021/10/12 02:25:41;;;;;;;10.88;6.63;;;;;;;;;;5089626;28;20054;-50
2021/10/12 02:28:07;;;;;;;8.30;5.65;;;;;;;;;;5073886;28;20041;-49
2021/10/12 02:30:34;;;;;;;8.57;5.78;;;;;;;;;;5077643;28;20039;-51
2021/10/12 02:33:00;;;;;;;8.02;5.53;;;;;;;;;;5087990;28;20024;-49
2021/10/12 02:35:26;;;;;;;9.18;5.38;;;;;;;;;;5089570;28;20566;-56
2021/10/12 02:37:52;;;;;;;8.98;5.55;;;;;;;;;;5076220;28;20039;-52
2021/10/12 02:40:19;;;;;;;10.18;5.55;;;;;;;;;;5069068;28;20021;-52
2021/10/12 02:42:45;;;;;;;7.40;5.10;;;;;;;;;;5068493;28;20029;-53
2021/10/12 02:45:11;;;;;;;7.30;5.25;;;;;;;;;;5069165;28;20106;-52
2021/10/12 02:47:37;;;;;;;9.23;5.97;;;;;;;;;;5068458;28;20036;-49
2021/10/12 02:50:04;;;;;;;8.00;5.68;;;;;;;;;;5068572;28;20494;-50
2021/10/12 02:52:30;;;;;;;7.93;5.00;;;;;;;;;;5068747;28;20032;-49
2021/10/12 02:54:56;;;;;;;7.72;5.13;;;;;;;;;;5068885;28;20024;-49
2021/10/12 02:57:23;;;;;;;7.93;5.18;;;;;;;;;;5068718;28;20078;-50
2021/10/12 02:59:49;;;;;;;7.68;5.28;;;;;;;;;;5068544;28;20021;-50
2021/10/12 03:02:15;;;;;;;6.30;4.50;;;;;;;;;;5068570;28;20108;-49
2021/10/12 03:04:41;;;;;;;7.55;4.80;;;;;;;;;;5068871;28;20398;-50
2021/10/12 03:07:07;;;;;;;7.30;4.97;;;;;;;;;;5067637;28;20078;-51
2021/10/12 03:09:33;;;;;;;8.63;5.45;;;;;;;;;;5068518;28;20039;-53
2021/10/12 03:11:59;;;;;;;9.27;5.75;;;;;;;;;;5068097;28;20723;-49
2021/10/12 03:14:25;;;;;;;8.90;6.35;;;;;;;;;;5077107;28;20020;-50
2021/10/12 03:16:51;;;;;;;7.10;5.00;;;;;;;;;;5081728;28;20025;-52
2021/10/12 03:19:18;;;;;;;6.65;5.20;;;;;;;;;;5077356;28;20012;-50
2021/10/12 03:21:55;;;;;;;7.43;5.30;;;;;;;;;;5088225;28;20028;-52
2021/10/12 03:24:21;;;;;;;6.55;4.63;;;;;;;;;;5073484;28;20025;-49
2021/10/12 03:26:47;;;;;;;6.65;4.75;;;;;;;;;;5072552;28;20531;-50
2021/10/12 03:29:13;;;;;;;5.68;4.40;;;;;;;;;;5088385;28;20028;-50
2021/10/12 03:31:39;;;;;;;7.40;5.18;;;;;;;;;;5088930;28;20386;-50
2021/10/12 03:34:06;;;;;;;6.55;4.72;;;;;;;;;;5088104;28;20032;-51
2021/10/12 03:36:32;;;;;;;6.90;4.72;;;;;;;;;;5084237;28;20104;-49
2021/10/12 03:38:58;;;;;;;5.47;3.97;;;;;;;;;;5067502;28;20517;-53
2021/10/12 03:41:24;;;;;;;6.05;4.53;;;;;;;;;;5067857;28;20077;-53
2021/10/12 03:43:50;;;;;;;8.27;4.75;;;;;;;;;;5082147;28;20553;-52
2021/10/12 03:46:16;;;;;;;6.40;4.80;;;;;;;;;;5087832;28;20078;-53
2021/10/12 03:48:42;;;;;;;7.18;5.10;;;;;;;;;;5087966;28;20024;-52
2021/10/12 03:51:09;;;;;;;8.52;5.15;;;;;;;;;;5080678;28;20495;-50
2021/10/12 03:53:36;;;;;;;8.02;4.90;;;;;;;;;;5067624;28;20024;-49
2021/10/12 03:56:02;;;;;;;8.73;5.57;;;;;;;;;;5067512;28;20020;-49
2021/10/12 03:58:28;;;;;;;6.78;4.82;;;;;;;;;;5067583;28;20024;-50
2021/10/12 04:00:54;;;;;;;7.30;4.75;;;;;;;;;;5067199;28;20475;-49
2021/10/12 04:03:20;;;;;;;8.85;5.43;;;;;;;;;;5067225;28;20038;-50
2021/10/12 04:05:47;;;;;;;6.78;5.00;;;;;;;;;;5066927;28;20058;-50
2021/10/12 04:08:13;;;;;;;6.95;5.00;;;;;;;;;;5066279;28;20027;-49
2021/10/12 04:10:40;;;;;;;5.63;4.60;;;;;;;;;;5066468;28;20060;-49
2021/10/12 04:13:06;;;;;;;7.03;4.90;;;;;;;;;;5067677;28;20024;-51
2021/10/12 04:15:32;;;;;;;6.65;4.65;;;;;;;;;;5067151;28;20021;-50
2021/10/12 04:17:58;;;;;;;6.10;4.63;;;;;;;;;;5066317;28;20020;-52
2021/10/12 04:20:26;;;;;;;6.47;4.88;;;;;;;;;;5066983;28;20047;-49
2021/10/12 04:22:52;;;;;;;7.13;4.82;;;;;;;;;;5066705;28;20099;-49
2021/10/12 04:25:19;;;;;;;7.57;5.30;;;;;;;;;;5066678;28;20074;-49
2021/10/12 04:27:45;;;;;;;6.75;4.82;;;;;;;;;;5066792;28;20036;-52
2021/10/12 04:30:11;;;;;;;6.97;4.72;;;;;;;;;;5066107;28;20036;-48
2021/10/12 04:32:37;;;;;;;7.78;5.13;;;;;;;;;;5065865;28;20032;-48
2021/10/12 04:35:04;;;;;;;6.78;5.15;;;;;;;;;;5065786;28;20048;-53
2021/10/12 04:37:30;;;;;;;7.25;5.20;;;;;;;;;;5066725;28;20394;-53
2021/10/12 04:39:56;;;;;;;6.25;4.57;;;;;;;;;;5065902;28;20482;-52
2021/10/12 04:42:22;;;;;;;8.23;5.53;;;;;;;;;;5066569;28;20017;-50
2021/10/12 04:44:53;;;;;;;6.43;4.55;;;;;;;;;;5066408;28;20024;-51
2021/10/12 04:47:20;;;;;;;6.97;5.18;;;;;;;;;;5073691;28;20022;-50
2021/10/12 04:49:49;;;;;;;6.55;4.53;;;;;;;;;;5071689;28;20032;-50
2021/10/12 04:52:16;;;;;;;6.40;5.20;;;;;;;;;;5066803;28;20056;-49
2021/10/12 04:54:43;;;;;;;8.35;5.60;;;;;;;;;;5066521;28;20078;-52
2021/10/12 04:57:09;;;;;;;7.85;4.88;;;;;;;;;;5067158;28;20403;-49
2021/10/12 04:59:35;;;;;;;6.43;4.70;;;;;;;;;;5065789;28;20038;-49
2021/10/12 05:02:01;;;;;;;7.63;5.40;;;;;;;;;;5066314;28;20041;-50
2021/10/12 05:04:27;;;;;;;6.00;4.65;;;;;;;;;;5064850;28;20573;-49
2021/10/12 05:06:53;;;;;;;7.53;4.95;;;;;;;;;;5066149;28;20554;-48
2021/10/12 05:09:19;;;;;;;8.18;5.45;;;;;;;;;;5066244;28;20028;-49
2021/10/12 05:11:45;;;;;;;7.32;4.80;;;;;;;;;;5077544;28;20054;-51
2021/10/12 05:14:11;;;;;;;7.68;5.35;;;;;;;;;;5085579;28;20387;-50
2021/10/12 05:16:38;;;;;;;7.38;5.15;;;;;;;;;;5085523;28;20020;-50
2021/10/12 05:19:04;;;;;;;6.97;5.05;;;;;;;;;;5074622;28;20027;-49
2021/10/12 05:21:31;;;;;;;8.38;5.22;;;;;;;;;;5065507;28;20103;-48
2021/10/12 05:23:57;;;;;;;7.07;5.05;;;;;;;;;;5066020;28;20025;-52
2021/10/12 05:26:23;;;;;;;6.55;5.00;;;;;;;;;;5066742;28;20025;-49
2021/10/12 05:28:51;;;;;;;7.45;5.10;;;;;;;;;;5066208;28;20041;-49
2021/10/12 05:31:18;;;;;;;8.98;5.43;;;;;;;;;;5066033;28;20025;-50
2021/10/12 05:33:45;;;;;;;6.95;5.28;;;;;;;;;;5066049;28;20032;-52
2021/10/12 05:36:11;;;;;;;6.72;4.80;;;;;;;;;;5066298;28;20104;-51
2021/10/12 05:38:37;;;;;;;8.20;5.45;;;;;;;;;;5066035;28;20056;-52
2021/10/12 05:41:03;;;;;;;6.78;4.90;;;;;;;;;;5064236;28;20600;-50
2021/10/12 05:43:30;;;;;;;6.95;4.97;;;;;;;;;;5065998;28;20032;-50
2021/10/12 05:45:56;;;;;;;8.45;5.93;;;;;;;;;;5065884;28;20024;-48
2021/10/12 05:48:22;;;;;;;7.40;5.43;;;;;;;;;;5065475;28;20040;-49
2021/10/12 05:50:48;;;;;;;7.50;5.63;;;;;;;;;;5065724;28;20135;-48
2021/10/12 05:53:31;;;;;;;7.38;5.20;;;;;;;;;;5081618;28;20085;-50
2021/10/12 05:58:49;;;;;;;9.68;5.82;;;;;;;;;;5069777;28;20073;-50
2021/10/12 06:01:13;;;;;;;10.30;5.68;;;;;;;;;;5074959;28;20032;-48
2021/10/12 06:03:39;;;;;;;9.18;6.22;;;;;;;;;;5078182;28;20020;-51
2021/10/12 06:06:06;;;;;;;9.13;6.00;;;;;;;;;;5069210;28;20558;-51
2021/10/12 06:08:33;;;;;;;12.02;6.57;;;;;;;;;;5082141;28;20028;-51
2021/10/12 06:11:00;;;;;;;9.05;6.00;;;;;;;;;;5089267;28;20028;-50
2021/10/12 06:13:26;;;;;;;8.48;5.15;;;;;;;;;;5070797;28;20122;-51
2021/10/12 06:15:53;;;;;;;8.60;5.50;;;;;;;;;;5070216;28;20457;-49
2021/10/12 06:18:19;;;;;;;8.45;5.68;;;;;;;;;;5069571;28;20081;-51
2021/10/12 06:20:45;;;;;;;8.02;5.53;;;;;;;;;;5082106;28;20453;-52
2021/10/12 06:23:12;;;;;;;8.40;5.57;;;;;;;;;;5089790;28;20035;-47
2021/10/12 06:25:38;;;;;;;8.38;5.65;;;;;;;;;;5070777;28;20036;-48
2021/10/12 06:28:05;;;;;;;6.47;4.93;;;;;;;;;;5068983;28;20032;-48
2021/10/12 06:30:31;;;;;;;7.90;5.45;;;;;;;;;;5078764;28;20493;-48
2021/10/12 06:32:57;;;;;;;8.20;5.82;;;;;;;;;;5067987;28;20035;-48
2021/10/12 06:35:24;;;;;;;8.55;5.68;;;;;;;;;;5068726;28;20440;-54
2021/10/12 06:37:50;;;;;;;8.32;5.93;;;;;;;;;;5067512;28;20020;-54
2021/10/12 06:40:16;;;;;;;7.47;5.45;;;;;;;;;;5080143;28;20028;-51
2021/10/12 06:42:42;;;;;;;7.88;5.63;;;;;;;;;;5067969;28;20098;-52
2021/10/12 06:45:08;;;;;;;8.80;5.93;;;;;;;;;;5079011;28;20119;-50
2021/10/12 06:47:34;;;;;;;8.27;5.80;;;;;;;;;;5085450;28;20142;-48
2021/10/12 06:50:00;;;;;;;8.38;5.90;;;;;;;;;;5087742;28;20078;-50
2021/10/12 06:52:26;;;;;;;8.38;5.90;;;;;;;;;;5069635;28;20683;-47
2021/10/12 06:54:52;;;;;;;8.02;5.75;;;;;;;;;;5068638;28;20514;-50
2021/10/12 06:57:19;;;;;;;11.18;6.05;;;;;;;;;;5068161;28;20099;-51
2021/10/12 06:59:45;;;;;;;7.63;5.72;;;;;;;;;;5067229;28;20039;-51
2021/10/12 07:02:12;;;;;;;9.40;6.00;;;;;;;;;;5079565;28;20032;-49
2021/10/12 07:04:39;;;;;;;9.68;5.88;;;;;;;;;;5079773;28;20031;-49
2021/10/12 07:07:05;;;;;;;8.48;5.85;;;;;;;;;;5077891;28;20025;-51
2021/10/12 07:09:31;;;;;;;7.63;5.38;;;;;;;;;;5088521;28;20043;-48
2021/10/12 07:11:57;;;;;;;9.27;5.97;;;;;;;;;;5072275;28;20066;-49
2021/10/12 07:14:23;;;;;;;9.45;6.03;;;;;;;;;;5088321;28;20140;-47
2021/10/12 07:16:49;;;;;;;8.45;5.68;;;;;;;;;;5078298;28;20033;-48
2021/10/12 07:19:15;;;;;;;8.55;5.60;;;;;;;;;;5078662;28;21151;-49
2021/10/12 07:21:41;;;;;;;10.90;6.68;;;;;;;;;;5069523;28;20077;-48
2021/10/12 07:24:07;;;;;;;9.45;6.40;;;;;;;;;;5070108;28;20032;-48
2021/10/12 07:26:33;;;;;;;9.40;5.95;;;;;;;;;;5089740;28;20685;-48
2021/10/12 07:28:59;;;;;;;8.52;6.15;;;;;;;;;;5089654;28;20043;-50
2021/10/12 07:31:26;;;;;;;8.48;5.80;;;;;;;;;;5089831;28;20020;-51
2021/10/12 07:33:52;;;;;;;11.07;6.50;;;;;;;;;;5089890;28;20061;-48
2021/10/12 07:36:18;;;;;;;9.05;5.97;;;;;;;;;;5072238;28;20029;-50
2021/10/12 07:38:44;;;;;;;9.75;6.15;;;;;;;;;;5069268;28;20094;-49
2021/10/12 07:41:12;;;;;;;9.70;6.25;;;;;;;;;;5069744;28;20059;-51
2021/10/12 07:43:38;;;;;;;10.18;6.20;;;;;;;;;;5069204;28;20024;-50
2021/10/12 07:46:05;;;;;;;8.93;5.72;;;;;;;;;;5068227;28;20503;-49
2021/10/12 07:48:31;;;;;;;10.40;6.28;;;;;;;;;;5069322;28;20035;-49
2021/10/12 07:50:57;;;;;;;10.02;6.30;;;;;;;;;;5069199;28;20067;-49
2021/10/12 07:53:23;;;;;;;10.30;6.20;;;;;;;;;;5069436;28;20020;-50
2021/10/12 07:55:53;;;;;;;8.68;5.75;;;;;;;;;;5068999;28;20021;-48
2021/10/12 07:58:19;;;;;;;10.27;6.90;;;;;;;;;;5069167;28;20024;-48
2021/10/12 08:00:45;;;;;;;7.95;5.22;;;;;;;;;;5068739;28;20738;-50
2021/10/12 08:03:12;;;;;;;10.85;6.60;;;;;;;;;;5069182;28;20024;-49
2021/10/12 08:05:39;;;;;;;7.80;5.60;;;;;;;;;;5070058;28;20055;-48
2021/10/12 08:08:05;;;;;;;8.73;5.93;;;;;;;;;;5068483;28;20040;-48
2021/10/12 08:10:33;;;;;;;8.50;5.68;;;;;;;;;;5068866;28;20029;-50
2021/10/12 08:13:05;;;;;;;7.82;5.55;;;;;;;;;;5068566;28;20522;-48
2021/10/12 08:15:31;;;;;;;8.75;5.88;;;;;;;;;;5068192;28;20048;-50
2021/10/12 08:17:57;;;;;;;8.35;5.43;;;;;;;;;;5068222;28;20115;-51
2021/10/12 08:20:24;;;;;;;8.10;5.57;;;;;;;;;;5069106;28;20061;-49
2021/10/12 08:22:50;;;;;;;10.02;5.75;;;;;;;;;;5068131;28;20578;-50
2021/10/12 08:25:16;;;;;;;8.52;5.88;;;;;;;;;;5068755;28;20032;-48
2021/10/12 08:27:42;;;;;;;10.73;6.45;;;;;;;;;;5069662;28;20597;-50
2021/10/12 08:30:09;;;;;;;11.02;6.85;;;;;;;;;;5068149;28;20035;-51
2021/10/12 08:32:36;;;;;;;9.00;5.97;;;;;;;;;;5067922;28;20028;-51
2021/10/12 08:35:02;;;;;;;9.07;6.18;;;;;;;;;;5067125;28;20086;-51
2021/10/12 08:37:28;;;;;;;8.70;5.63;;;;;;;;;;5068183;28;20028;-53
2021/10/12 08:39:54;;;;;;;8.93;5.55;;;;;;;;;;5068447;28;20096;-53
2021/10/12 08:42:20;;;;;;;9.20;6.20;;;;;;;;;;5068307;28;20126;-52
2021/10/12 08:44:56;;;;;;;7.70;5.65;;;;;;;;;;5068154;28;20131;-51
2021/10/12 08:47:23;;;;;;;10.65;6.45;;;;;;;;;;5068494;28;20471;-49
2021/10/12 08:49:50;;;;;;;8.85;6.43;;;;;;;;;;5068046;28;20025;-52
2021/10/12 08:52:16;;;;;;;10.60;6.07;;;;;;;;;;5068466;28;20499;-51
2021/10/12 08:54:42;;;;;;;8.52;6.00;;;;;;;;;;5088380;28;20024;-51
2021/10/12 08:57:08;;;;;;;9.25;6.00;;;;;;;;;;5088235;28;20020;-49
2021/10/12 08:59:34;;;;;;;10.40;6.57;;;;;;;;;;5088280;28;20024;-51
2021/10/12 09:02:02;;;;;;;9.35;6.68;;;;;;;;;;5068102;28;20074;-49
2021/10/12 09:04:41;;;;;;;9.45;6.00;;;;;;;;;;5067966;28;20037;-51
2021/10/12 09:07:18;;;;;;;8.77;5.75;;;;;;;;;;5067873;28;20027;-49
2021/10/12 09:09:45;;;;;;;7.75;6.00;;;;;;;;;;5072443;28;20044;-49
2021/10/12 09:12:11;;;;;;;12.88;8.75;;;;;;;;;;5079182;28;20115;-52
2021/10/12 09:14:56;;;;;;;17.65;10.95;;;;;;;;;;5082717;28;20032;-52
2021/10/12 09:17:30;;;;;;;15.95;10.13;;;;;;;;;;5089612;28;20024;-50
2021/10/12 09:19:56;;;;;;;14.02;8.85;;;;;;;;;;5085334;28;20025;-51
2021/10/12 09:22:22;;;;;;;14.00;7.75;;;;;;;;;;5071385;28;20033;-50
2021/10/12 09:24:49;;;;;;;11.27;6.78;;;;;;;;;;5071883;28;20035;-48
2021/10/12 09:27:16;;;;;;;11.50;7.40;;;;;;;;;;5074023;28;20023;-48
2021/10/12 09:29:49;;;;;;;10.68;7.15;;;;;;;;;;5088774;28;20482;-50
2021/10/12 09:32:16;;;;;;;11.68;7.25;;;;;;;;;;5078327;28;20028;-49
2021/10/12 09:34:44;;;;;;;10.13;6.78;;;;;;;;;;5073672;28;20120;-48
2021/10/12 09:37:11;;;;;;;11.45;7.43;;;;;;;;;;5093164;28;20016;-50
2021/10/12 09:39:49;;;;;;;9.52;6.38;;;;;;;;;;5093239;28;20024;-52
2021/10/12 09:42:16;;;;;;;9.63;6.20;;;;;;;;;;5087115;28;20719;-49
2021/10/12 09:44:55;;;;;;;11.43;6.70;;;;;;;;;;5074533;28;20577;-52
2021/10/12 09:47:22;;;;;;;8.95;5.88;;;;;;;;;;5079618;28;20103;-48
2021/10/12 09:49:50;;;;;;;7.68;5.43;;;;;;;;;;5092360;28;20032;-48
2021/10/12 09:52:22;;;;;;;6.10;4.55;;;;;;;;;;5090558;28;20139;-52
2021/10/12 09:54:52;;;;;;;10.65;7.13;;;;;;;;;;5072063;28;20025;-49
2021/10/12 09:57:19;;;;;;;10.35;6.93;;;;;;;;;;5075907;28;20080;-49
2021/10/12 09:59:46;;;;;;;8.38;6.10;;;;;;;;;;5082367;28;20103;-51
2021/10/12 10:02:14;;;;;;;9.02;5.93;;;;;;;;;;5090654;28;20028;-53
2021/10/12 10:04:41;;;;;;;5.97;4.60;;;;;;;;;;5082913;28;20119;-50
2021/10/12 10:07:10;;;;;;;11.55;7.43;;;;;;;;;;5077976;28;20443;-48
2021/10/12 10:09:37;;;;;;;11.45;6.97;;;;;;;;;;5072255;28;20111;-52
2021/10/12 10:12:06;;;;;;;10.63;6.95;;;;;;;;;;5073044;28;20037;-52
2021/10/12 10:14:32;;;;;;;8.70;6.15;;;;;;;;;;5083344;28;20029;-52
2021/10/12 10:16:59;;;;;;;8.55;6.25;;;;;;;;;;5071812;28;20023;-50
2021/10/12 10:19:31;;;;;;;7.90;4.95;;;;;;;;;;5087065;28;20463;-52
2021/10/12 10:21:57;;;;;;;8.15;5.55;;;;;;;;;;5078314;28;20029;-53
2021/10/12 10:24:29;;;;;;;7.32;5.15;;;;;;;;;;5072332;28;20054;-53
2021/10/12 10:26:55;;;;;;;8.70;5.13;;;;;;;;;;5077504;28;20032;-53
2021/10/12 10:29:22;;;;;;;9.45;5.65;;;;;;;;;;5090125;28;20036;-49
2021/10/12 10:31:59;;;;;;;8.05;5.85;;;;;;;;;;5082261;28;20024;-48
2021/10/12 10:34:40;;;;;;;10.48;6.57;;;;;;;;;;5071842;28;20108;-52
2021/10/12 10:37:18;;;;;;;7.13;4.88;;;;;;;;;;5078709;28;20020;-58
2021/10/12 10:39:50;;;;;;;5.57;4.10;;;;;;;;;;5073228;28;20059;-56
2021/10/12 10:42:26;;;;;;;5.13;4.10;;;;;;;;;;5074911;28;20032;-49
2021/10/12 10:44:55;;;;;;;7.53;5.30;;;;;;;;;;5091837;28;20378;-52
2021/10/12 10:47:50;;;;;;;7.45;4.93;;;;;;;;;;5091469;28;20479;-52
2021/10/12 10:50:19;;;;;;;5.22;3.97;;;;;;;;;;5083918;28;20050;-50
2021/10/12 10:52:45;;;;;;;4.82;3.72;;;;;;;;;;5090128;28;20016;-52
2021/10/12 10:55:12;;;;;;;5.50;4.20;;;;;;;;;;5090758;28;20048;-50
2021/10/12 10:57:39;;;;;;;7.15;4.45;;;;;;;;;;5082879;28;20407;-50
2021/10/12 11:00:18;;;;;;;4.47;3.63;;;;;;;;;;5072776;28;20039;-49
2021/10/12 11:02:48;;;;;;;6.80;4.22;;;;;;;;;;5083006;28;20051;-49
2021/10/12 11:05:30;;;;;;;6.47;4.93;;;;;;;;;;5090606;28;20024;-48
2021/10/12 11:08:09;;;;;;;4.93;3.60;;;;;;;;;;5090540;28;20012;-51
2021/10/12 11:10:35;;;;;;;5.18;3.85;;;;;;;;;;5090406;28;20055;-48
2021/10/12 11:13:01;;;;;;;4.75;3.67;;;;;;;;;;5089943;28;20584;-48
2021/10/12 11:15:27;;;;;;;3.92;3.28;;;;;;;;;;5089480;28;20035;-48
2021/10/12 11:18:07;;;;;;;5.60;3.70;;;;;;;;;;5089991;28;20371;-50
2021/10/12 11:20:43;;;;;;;5.10;3.67;;;;;;;;;;5090304;28;20050;-48
2021/10/12 11:23:10;;;;;;;5.13;3.10;;;;;;;;;;5088697;28;20031;-49
2021/10/12 11:25:37;;;;;;;6.13;3.63;;;;;;;;;;5090203;28;20055;-48
2021/10/12 11:28:07;;;;;;;4.50;3.42;;;;;;;;;;5089977;28;20029;-53
2021/10/12 11:30:34;;;;;;;5.70;3.97;;;;;;;;;;5089778;28;20057;-48
2021/10/12 11:33:01;;;;;;;5.38;3.78;;;;;;;;;;5077490;28;20017;-49
2021/10/12 11:35:34;;;;;;;5.00;2.95;;;;;;;;;;5069846;28;20097;-49
2021/10/12 11:38:01;;;;;;;4.63;3.20;;;;;;;;;;5068067;28;20029;-50
2021/10/12 11:40:27;;;;;;;5.55;3.90;;;;;;;;;;5069987;28;20493;-52
2021/10/12 11:42:56;;;;;;;4.93;3.10;;;;;;;;;;5069348;28;20024;-52
2021/10/12 11:45:22;;;;;;;4.82;2.95;;;;;;;;;;5069024;28;20086;-49
2021/10/12 11:47:48;;;;;;;4.53;3.05;;;;;;;;;;5067701;28;20415;-51
2021/10/12 11:50:15;;;;;;;4.10;3.20;;;;;;;;;;5068719;28;20025;-48
2021/10/12 11:52:41;;;;;;;3.03;2.42;;;;;;;;;;5069498;28;20063;-49
2021/10/12 11:55:09;;;;;;;2.83;2.30;;;;;;;;;;5069307;28;20024;-49
2021/10/12 11:57:35;;;;;;;3.47;2.20;;;;;;;;;;5069324;28;20047;-49
2021/10/12 12:00:01;;;;;;;3.22;2.35;;;;;;;;;;5068983;28;20028;-49
2021/10/12 12:02:30;;;;;;;5.47;3.05;;;;;;;;;;5069542;28;20391;-49
2021/10/12 12:05:00;;;;;;;3.70;2.15;;;;;;;;;;5069260;28;20082;-49
2021/10/12 12:07:27;;;;;;;3.92;2.45;;;;;;;;;;5067844;28;20028;-50
2021/10/12 12:09:53;;;;;;;2.85;2.10;;;;;;;;;;5086906;28;20090;-51
2021/10/12 12:12:19;;;;;;;3.35;2.22;;;;;;;;;;5088530;28;20054;-48
2021/10/12 12:14:49;;;;;;;3.55;2.10;;;;;;;;;;5075419;28;20715;-51
2021/10/12 12:17:19;;;;;;;2.33;1.80;;;;;;;;;;5067145;28;20021;-48
2021/10/12 12:19:52;;;;;;;3.03;2.47;;;;;;;;;;5067293;28;20660;-51
2021/10/12 12:22:20;;;;;;;4.57;2.53;;;;;;;;;;5067344;28;20032;-49
2021/10/12 12:24:56;;;;;;;2.70;2.10;;;;;;;;;;5067217;28;20024;-49
2021/10/12 12:27:24;;;;;;;3.65;1.92;;;;;;;;;;5067119;28;20074;-51
2021/10/12 12:29:57;;;;;;;3.28;2.00;;;;;;;;;;5066961;28;20158;-50
2021/10/12 12:32:23;;;;;;;3.22;2.25;;;;;;;;;;5067886;28;20039;-52
2021/10/12 12:35:09;;;;;;;2.75;2.03;;;;;;;;;;5066544;28;20039;-52
2021/10/12 12:37:36;;;;;;;3.75;2.20;;;;;;;;;;5066780;28;20492;-52
2021/10/12 12:40:22;;;;;;;3.58;2.40;;;;;;;;;;5067121;28;20052;-55
2021/10/12 12:42:48;;;;;;;3.63;2.50;;;;;;;;;;5066170;28;20470;-51
2021/10/12 12:45:20;;;;;;;3.20;2.10;;;;;;;;;;5066247;28;20036;-52
2021/10/12 12:47:57;;;;;;;2.90;2.03;;;;;;;;;;5071883;28;20042;-52
2021/10/12 12:50:27;;;;;;;3.28;2.00;;;;;;;;;;5088026;28;20033;-51
2021/10/12 12:52:54;;;;;;;2.70;1.92;;;;;;;;;;5088219;28;20028;-52
2021/10/12 12:55:30;;;;;;;2.22;1.65;;;;;;;;;;5088497;28;20016;-51
2021/10/12 12:57:56;;;;;;;2.28;1.70;;;;;;;;;;5073038;28;20020;-51
2021/10/12 13:00:22;;;;;;;2.38;1.38;;;;;;;;;;5087113;28;20031;-51
2021/10/12 13:02:58;;;;;;;2.75;1.80;;;;;;;;;;5087658;28;20024;-53
2021/10/12 13:05:26;;;;;;;1.98;1.55;;;;;;;;;;5074754;28;20024;-52
2021/10/12 13:07:52;;;;;;;2.17;1.50;;;;;;;;;;5067798;28;20052;-50
2021/10/12 13:10:19;;;;;;;2.55;1.42;;;;;;;;;;5076474;28;20050;-50
2021/10/12 13:12:47;;;;;;;1.95;1.30;;;;;;;;;;5068008;28;20048;-51
2021/10/12 13:15:14;;;;;;;1.98;1.48;;;;;;;;;;5078376;28;20115;-52
2021/10/12 13:17:40;;;;;;;2.55;1.40;;;;;;;;;;5077350;28;20442;-52
2021/10/12 13:20:07;;;;;;;1.83;1.40;;;;;;;;;;5069371;28;20044;-50
2021/10/12 13:22:33;;;;;;;1.98;1.23;;;;;;;;;;5067875;28;20449;-52
2021/10/12 13:24:59;;;;;;;3.80;1.70;;;;;;;;;;5074614;28;20071;-49
2021/10/12 13:27:25;;;;;;;1.73;1.23;;;;;;;;;;5087502;28;20034;-49
2021/10/12 13:29:51;;;;;;;2.83;1.70;;;;;;;;;;5085579;28;20441;-48
2021/10/12 13:32:17;;;;;;;2.40;1.35;;;;;;;;;;5082274;28;20044;-50
2021/10/12 13:34:48;;;;;;;2.83;1.70;;;;;;;;;;5067664;28;20032;-49
2021/10/12 13:37:15;;;;;;;3.17;1.83;;;;;;;;;;5068097;28;20104;-48
2021/10/12 13:39:42;;;;;;;2.40;1.60;;;;;;;;;;5085592;28;20060;-49
2021/10/12 13:42:08;;;;;;;2.80;1.65;;;;;;;;;;5085496;28;20032;-51
2021/10/12 13:44:35;;;;;;;1.55;1.08;;;;;;;;;;5080178;28;20029;-49
2021/10/12 13:47:01;;;;;;;2.88;1.60;;;;;;;;;;5067772;28;20033;-49
2021/10/12 13:49:27;;;;;;;1.95;1.10;;;;;;;;;;5087725;28;20032;-49
2021/10/12 13:51:53;;;;;;;3.22;1.58;;;;;;;;;;5072136;28;20071;-50
2021/10/12 13:54:22;;;;;;;2.67;1.40;;;;;;;;;;5067768;28;20399;-49
2021/10/12 13:56:48;;;;;;;1.80;1.20;;;;;;;;;;5071601;28;20085;-52
2021/10/12 13:59:14;;;;;;;2.33;1.00;;;;;;;;;;5068845;28;20383;-51
2021/10/12 14:01:40;;;;;;;1.75;1.15;;;;;;;;;;5067530;28;20037;-49
2021/10/12 14:04:06;;;;;;;1.55;1.02;;;;;;;;;;5070161;28;20517;-48
2021/10/12 14:06:32;;;;;;;1.55;1.10;;;;;;;;;;5070189;28;20035;-49
2021/10/12 14:08:58;;;;;;;2.25;1.27;;;;;;;;;;5073385;28;20033;-49
2021/10/12 14:11:24;;;;;;;1.98;1.02;;;;;;;;;;5066934;28;20373;-50
2021/10/12 14:13:50;;;;;;;3.63;1.33;;;;;;;;;;5068407;28;20027;-50
2021/10/12 14:16:16;;;;;;;2.67;1.00;;;;;;;;;;5071586;28;20020;-50
2021/10/12 14:18:43;;;;;;;1.60;0.80;;;;;;;;;;5070021;28;20158;-50
2021/10/12 14:21:11;;;;;;;2.80;1.00;;;;;;;;;;5069527;28;20069;-52
2021/10/12 14:23:37;;;;;;;3.38;1.35;;;;;;;;;;5069600;28;20024;-49
2021/10/12 14:26:07;;;;;;;2.05;1.17;;;;;;;;;;5069964;28;20103;-52
2021/10/12 14:28:33;;;;;;;1.10;0.82;;;;;;;;;;5069541;28;20561;-50
2021/10/12 14:30:59;;;;;;;2.10;1.13;;;;;;;;;;5069520;28;20145;-49
2021/10/12 14:33:25;;;;;;;2.20;1.08;;;;;;;;;;5069994;28;20114;-50
2021/10/12 14:35:55;;;;;;;2.13;1.38;;;;;;;;;;5069313;28;20427;-53
2021/10/12 14:38:22;;;;;;;2.50;1.27;;;;;;;;;;5069255;28;20388;-50
2021/10/12 14:40:48;;;;;;;2.33;1.00;;;;;;;;;;5069740;28;20076;-55
2021/10/12 14:43:15;;;;;;;2.20;1.20;;;;;;;;;;5068950;28;20114;-53
2021/10/12 14:45:41;;;;;;;1.55;1.10;;;;;;;;;;5069254;28;20037;-53